createdAt,value
2018-07-04T00:02:25.137Z,38.80
2018-07-04T00:05:04.701Z,38.80
2018-07-04T00:07:44.123Z,38.80
2018-07-04T00:10:23.799Z,38.80
2018-07-04T00:13:03.235Z,38.80
2018-07-04T00:15:42.656Z,38.90
2018-07-04T00:18:22.399Z,38.90
2018-07-04T00:21:01.908Z,38.90
2018-07-04T00:23:41.585Z,38.90
2018-07-04T00:26:21.112Z,38.90
2018-07-04T00:29:00.732Z,38.90
2018-07-04T00:31:40.249Z,38.90
2018-07-04T00:34:19.924Z,38.90
2018-07-04T00:36:59.557Z,39.00
2018-07-04T00:39:38.956Z,39.00
2018-07-04T00:42:18.356Z,39.00
2018-07-04T00:44:57.948Z,39.00
2018-07-04T00:47:37.416Z,39.00
2018-07-04T00:50:17.090Z,39.00
2018-07-04T00:52:56.584Z,39.70
2018-07-04T00:55:36.254Z,39.10
2018-07-04T00:58:15.765Z,39.00
2018-07-04T01:00:55.356Z,39.00
2018-07-04T01:03:34.964Z,39.00
2018-07-04T01:06:14.838Z,39.00
2018-07-04T01:08:54.371Z,39.00
2018-07-04T01:11:34.175Z,39.00
2018-07-04T01:14:13.812Z,39.00
2018-07-04T01:16:53.552Z,39.10
2018-07-04T01:19:33.126Z,39.00
2018-07-04T01:22:12.905Z,39.00
2018-07-04T01:24:52.439Z,39.00
2018-07-04T01:27:31.908Z,39.00
2018-07-04T01:30:11.405Z,39.00
2018-07-04T01:32:51.039Z,39.00
2018-07-04T01:35:30.580Z,38.80
2018-07-04T01:38:10.243Z,39.10
2018-07-04T01:40:49.688Z,39.00
2018-07-04T01:43:29.358Z,39.00
2018-07-04T01:46:08.829Z,39.00
2018-07-04T01:48:48.553Z,39.10
2018-07-04T01:51:27.912Z,39.10
2018-07-04T01:54:07.432Z,39.10
2018-07-04T01:56:46.800Z,39.10
2018-07-04T01:59:26.460Z,39.10
2018-07-04T02:02:05.928Z,39.10
2018-07-04T02:04:45.492Z,39.10
2018-07-04T02:07:25.016Z,39.10
2018-07-04T02:10:04.651Z,39.10
2018-07-04T02:12:44.108Z,39.10
2018-07-04T02:15:23.715Z,39.10
2018-07-04T02:18:03.183Z,39.20
2018-07-04T02:20:42.704Z,39.10
2018-07-04T02:23:22.425Z,39.80
2018-07-04T02:26:01.873Z,39.20
2018-07-04T02:28:41.380Z,39.20
2018-07-04T02:31:20.929Z,39.20
2018-07-04T02:34:00.545Z,39.20
2018-07-04T02:36:40.085Z,39.20
2018-07-04T02:39:19.781Z,39.20
2018-07-04T02:41:59.302Z,39.10
2018-07-04T02:44:39.098Z,39.20
2018-07-04T02:47:24.148Z,39.20
2018-07-04T02:50:03.746Z,39.20
2018-07-04T02:52:43.257Z,39.20
2018-07-04T02:55:23.154Z,39.20
2018-07-04T02:58:02.867Z,39.20
2018-07-04T03:00:42.779Z,39.20
2018-07-04T03:03:22.248Z,39.20
2018-07-04T03:06:01.964Z,39.20
2018-07-04T03:08:41.502Z,39.30
2018-07-04T03:11:21.159Z,39.30
2018-07-04T03:14:00.664Z,39.30
2018-07-04T03:16:40.324Z,39.20
2018-07-04T03:19:19.920Z,39.30
2018-07-04T03:21:59.614Z,39.30
2018-07-04T03:24:39.727Z,39.30
2018-07-04T03:27:19.338Z,39.30
2018-07-04T03:29:59.067Z,39.30
2018-07-04T03:32:38.822Z,39.40
2018-07-04T03:35:18.452Z,39.30
2018-07-04T03:37:58.003Z,39.40
2018-07-04T03:40:37.629Z,39.40
2018-07-04T03:43:17.158Z,39.60
2018-07-04T03:45:56.556Z,39.40
2018-07-04T03:48:36.176Z,39.50
2018-07-04T03:51:15.712Z,39.50
2018-07-04T03:53:55.207Z,39.50
2018-07-04T03:56:34.860Z,39.40
2018-07-04T03:59:14.264Z,39.40
2018-07-04T04:01:53.797Z,39.40
2018-07-04T04:04:33.632Z,39.40
2018-07-04T04:07:13.151Z,39.50
2018-07-04T04:09:52.889Z,39.50
2018-07-04T04:12:32.641Z,39.50
2018-07-04T04:15:12.160Z,39.50
2018-07-04T04:17:51.772Z,39.50
2018-07-04T04:20:31.450Z,39.50
2018-07-04T04:23:11.061Z,39.50
2018-07-04T04:25:50.636Z,39.50
2018-07-04T04:28:30.342Z,39.60
2018-07-04T04:31:10.049Z,39.60
2018-07-04T04:33:49.719Z,39.60
2018-07-04T04:36:29.250Z,39.70
2018-07-04T04:39:09.028Z,39.70
2018-07-04T04:41:48.492Z,39.70
2018-07-04T04:44:28.165Z,39.70
2018-07-04T04:47:07.714Z,39.70
2018-07-04T04:49:47.283Z,39.60
2018-07-04T04:52:26.811Z,39.60
2018-07-04T04:55:06.543Z,39.70
2018-07-04T04:57:46.097Z,39.70
2018-07-04T05:00:25.637Z,39.70
2018-07-04T05:03:05.308Z,39.70
2018-07-04T05:05:44.904Z,39.70
2018-07-04T05:08:24.520Z,39.70
2018-07-04T05:11:04.293Z,40.30
2018-07-04T05:13:43.849Z,39.70
2018-07-04T05:16:23.416Z,39.70
2018-07-04T05:19:03.005Z,39.70
2018-07-04T05:24:16.228Z,40.40
2018-07-04T05:26:55.664Z,39.70
2018-07-04T05:29:35.346Z,39.70
2018-07-04T05:32:14.761Z,39.80
2018-07-04T05:34:54.482Z,39.70
2018-07-04T05:37:33.944Z,39.70
2018-07-04T05:40:13.651Z,39.70
2018-07-04T05:42:53.169Z,40.10
2018-07-04T05:45:32.965Z,39.70
2018-07-04T05:48:12.320Z,39.80
2018-07-04T05:50:51.924Z,39.70
2018-07-04T05:53:31.476Z,39.80
2018-07-04T05:56:11.144Z,40.40
2018-07-04T05:58:50.622Z,39.80
2018-07-04T06:01:30.515Z,39.70
2018-07-04T06:04:10.377Z,39.80
2018-07-04T06:06:49.939Z,39.80
2018-07-04T06:09:29.769Z,39.80
2018-07-04T06:12:09.485Z,39.80
2018-07-04T06:14:49.173Z,39.80
2018-07-04T06:17:28.833Z,39.80
2018-07-04T06:20:09.173Z,39.70
2018-07-04T06:22:48.920Z,39.70
2018-07-04T06:25:28.582Z,39.80
2018-07-04T06:28:08.208Z,39.80
2018-07-04T06:30:47.848Z,39.80
2018-07-04T06:33:27.704Z,39.70
2018-07-04T06:36:07.388Z,39.80
2018-07-04T06:38:34.536Z,39.80
2018-07-04T06:41:01.747Z,39.70
2018-07-04T06:43:28.922Z,39.80
2018-07-04T06:45:56.072Z,39.80
2018-07-04T06:48:23.311Z,39.70
2018-07-04T06:50:50.464Z,40.30
2018-07-04T06:53:17.623Z,39.60
2018-07-04T06:55:44.808Z,39.60
2018-07-04T06:58:11.990Z,39.70
2018-07-04T07:00:39.141Z,39.70
2018-07-04T07:03:18.914Z,40.30
2018-07-04T07:05:58.600Z,39.70
2018-07-04T07:08:38.362Z,39.70
2018-07-04T07:11:17.813Z,39.70
2018-07-04T07:13:57.574Z,39.70
2018-07-04T07:16:37.209Z,39.60
2018-07-04T07:19:16.656Z,39.60
2018-07-04T07:24:29.900Z,39.70
2018-07-04T07:27:09.505Z,39.60
2018-07-04T07:29:49.108Z,39.60
2018-07-04T07:32:28.657Z,39.60
2018-07-04T07:35:08.329Z,39.60
2018-07-04T07:37:47.945Z,39.60
2018-07-04T07:40:27.392Z,39.50
2018-07-04T07:43:07.388Z,39.50
2018-07-04T07:45:47.037Z,39.50
2018-07-04T07:48:26.735Z,39.50
2018-07-04T07:51:06.245Z,39.50
2018-07-04T07:53:45.830Z,39.50
2018-07-04T07:56:25.323Z,39.50
2018-07-04T07:59:05.180Z,39.40
2018-07-04T08:01:44.773Z,39.50
2018-07-04T08:04:24.312Z,39.50
2018-07-04T08:07:03.905Z,39.40
2018-07-04T08:09:43.573Z,39.40
2018-07-04T08:12:22.948Z,39.40
2018-07-04T08:15:02.617Z,39.50
2018-07-04T08:17:42.079Z,39.30
2018-07-04T08:20:21.625Z,39.20
2018-07-04T08:23:01.288Z,39.30
2018-07-04T08:25:40.855Z,39.20
2018-07-04T08:28:20.481Z,39.20
2018-07-04T08:31:00.201Z,39.20
2018-07-04T08:33:39.704Z,39.20
2018-07-04T08:36:19.368Z,39.20
2018-07-04T08:38:59.291Z,39.20
2018-07-04T08:41:38.819Z,39.20
2018-07-04T08:44:18.368Z,39.20
2018-07-04T08:46:57.920Z,39.20
2018-07-04T08:49:37.602Z,39.20
2018-07-04T08:54:50.772Z,39.60
2018-07-04T08:57:30.291Z,39.00
2018-07-04T09:00:09.856Z,39.00
2018-07-04T09:02:49.393Z,39.00
2018-07-04T09:05:29.233Z,39.10
2018-07-04T09:08:08.877Z,39.10
2018-07-04T09:10:48.428Z,39.00
2018-07-04T09:13:28.016Z,39.10
2018-07-04T09:16:07.621Z,39.00
2018-07-04T09:18:47.117Z,39.00
2018-07-04T09:21:26.689Z,39.00
2018-07-04T09:24:06.150Z,38.90
2018-07-04T09:26:45.896Z,38.90
2018-07-04T09:29:25.423Z,38.90
2018-07-04T09:32:05.030Z,38.80
2018-07-04T09:34:44.545Z,38.80
2018-07-04T09:37:24.251Z,38.80
2018-07-04T09:40:03.973Z,38.80
2018-07-04T09:42:43.449Z,39.20
2018-07-04T09:45:23.214Z,38.70
2018-07-04T09:48:02.803Z,38.70
2018-07-04T09:50:42.335Z,38.80
2018-07-04T09:53:21.879Z,38.70
2018-07-04T09:56:01.637Z,38.70
2018-07-04T09:58:41.352Z,38.80
2018-07-04T10:01:24.932Z,38.70
2018-07-04T10:04:04.383Z,38.70
2018-07-04T10:06:44.772Z,38.80
2018-07-04T10:11:57.842Z,38.20
2018-07-04T10:14:37.548Z,38.80
2018-07-04T10:17:17.235Z,38.80
2018-07-04T10:19:56.943Z,38.80
2018-07-04T10:22:36.533Z,38.70
2018-07-04T10:25:16.162Z,38.70
2018-07-04T10:27:55.725Z,38.70
2018-07-04T10:30:35.270Z,38.70
2018-07-04T10:33:14.949Z,38.70
2018-07-04T10:35:54.473Z,38.70
2018-07-04T10:38:34.096Z,38.60
2018-07-04T10:41:13.652Z,38.60
2018-07-04T10:43:53.292Z,38.60
2018-07-04T10:46:33.511Z,38.50
2018-07-04T10:49:13.116Z,39.10
2018-07-04T10:51:52.725Z,38.30
2018-07-04T10:54:32.312Z,38.40
2018-07-04T10:57:11.875Z,38.40
2018-07-04T10:59:52.430Z,38.40
2018-07-04T11:02:32.042Z,38.30
2018-07-04T11:05:11.731Z,38.30
2018-07-04T11:07:51.378Z,38.20
2018-07-04T11:10:31.015Z,38.20
2018-07-04T11:15:44.167Z,38.30
2018-07-04T11:18:23.760Z,38.30
2018-07-04T11:21:03.488Z,38.50
2018-07-04T11:23:43.248Z,38.50
2018-07-04T11:26:22.898Z,38.90
2018-07-04T11:29:02.557Z,38.90
2018-07-04T11:31:42.015Z,38.70
2018-07-04T11:36:55.215Z,38.50
2018-07-04T11:39:35.105Z,38.40
2018-07-04T11:42:14.712Z,38.20
2018-07-04T11:44:54.466Z,38.20
2018-07-04T11:47:21.790Z,37.80
2018-07-04T11:49:48.969Z,37.90
2018-07-04T11:52:16.178Z,37.90
2018-07-04T11:57:10.907Z,38.40
2018-07-04T11:59:38.178Z,37.70
2018-07-04T12:02:05.354Z,37.60
2018-07-04T12:04:45.055Z,37.10
2018-07-04T12:07:12.316Z,36.90
2018-07-04T12:09:40.209Z,36.90
2018-07-04T12:14:34.862Z,37.00
2018-07-04T12:17:02.041Z,37.50
2018-07-04T12:19:29.277Z,36.80
2018-07-04T12:21:56.457Z,36.30
2018-07-04T12:24:23.604Z,36.80
2018-07-04T12:26:50.835Z,36.40
2018-07-04T12:29:17.930Z,36.20
2018-07-04T12:31:45.112Z,36.30
2018-07-04T12:34:12.274Z,36.30
2018-07-04T12:36:39.488Z,36.00
2018-07-04T12:39:06.703Z,35.80
2018-07-04T12:41:33.861Z,35.80
2018-07-04T12:44:01.139Z,35.60
2018-07-04T12:46:28.898Z,35.60
2018-07-04T12:49:02.181Z,35.50
2018-07-04T12:51:30.849Z,35.60
2018-07-04T12:54:03.583Z,35.60
2018-07-04T12:56:43.525Z,35.30
2018-07-04T12:59:23.009Z,35.20
2018-07-04T13:02:03.141Z,35.40
2018-07-04T13:04:43.093Z,35.00
2018-07-04T13:07:23.565Z,35.20
2018-07-04T13:10:03.028Z,35.00
2018-07-04T13:12:42.809Z,34.70
2018-07-04T13:15:22.761Z,34.90
2018-07-04T13:18:02.406Z,34.60
2018-07-04T13:20:41.940Z,34.50
2018-07-04T13:23:21.372Z,34.40
2018-07-04T13:26:01.139Z,34.40
2018-07-04T13:28:40.844Z,34.70
2018-07-04T13:33:53.978Z,33.80
2018-07-04T13:36:33.550Z,33.90
2018-07-04T13:39:13.284Z,33.70
2018-07-04T13:41:53.061Z,33.80
2018-07-04T13:44:32.887Z,34.30
2018-07-04T13:47:12.708Z,34.20
2018-07-04T13:49:52.309Z,34.00
2018-07-04T13:52:38.341Z,34.10
2018-07-04T13:55:17.800Z,34.40
2018-07-04T13:57:57.511Z,34.10
2018-07-04T14:00:37.931Z,33.90
2018-07-04T14:03:17.643Z,33.90
2018-07-04T14:05:57.298Z,33.40
2018-07-04T14:11:10.818Z,33.50
2018-07-04T14:13:50.365Z,33.20
2018-07-04T14:16:29.896Z,33.30
2018-07-04T14:19:09.793Z,33.10
2018-07-04T14:21:49.437Z,32.90
2018-07-04T14:24:29.180Z,32.70
2018-07-04T14:27:08.950Z,31.90
2018-07-04T14:29:48.605Z,32.20
2018-07-04T14:32:28.147Z,32.20
2018-07-04T14:35:07.865Z,32.20
2018-07-04T14:37:47.541Z,32.00
2018-07-04T14:40:27.248Z,31.50
2018-07-04T14:43:06.784Z,31.60
2018-07-04T14:45:46.239Z,31.10
2018-07-04T14:48:25.885Z,31.20
2018-07-04T14:51:05.354Z,31.40
2018-07-04T14:53:45.073Z,31.50
2018-07-04T14:56:24.872Z,31.70
2018-07-04T14:59:04.637Z,31.00
2018-07-04T15:01:44.252Z,31.20
2018-07-04T15:06:57.717Z,30.90
2018-07-04T15:09:37.476Z,30.50
2018-07-04T15:12:17.185Z,30.30
2018-07-04T15:14:56.608Z,30.60
2018-07-04T15:17:36.332Z,30.50
2018-07-04T15:20:16.024Z,30.90
2018-07-04T15:22:55.755Z,31.60
2018-07-04T15:28:09.062Z,31.20
2018-07-04T15:30:48.566Z,31.40
2018-07-04T15:33:28.156Z,31.00
2018-07-04T15:36:07.888Z,31.50
2018-07-04T15:38:47.392Z,31.30
2018-07-04T15:41:27.134Z,31.10
2018-07-04T15:44:06.911Z,31.70
2018-07-04T15:46:46.452Z,31.80
2018-07-04T15:49:26.058Z,31.60
2018-07-04T15:52:05.762Z,32.20
2018-07-04T15:54:45.198Z,32.20
2018-07-04T15:57:24.960Z,32.30
2018-07-04T16:00:04.697Z,32.20
2018-07-04T16:02:44.385Z,32.60
2018-07-04T16:05:23.956Z,32.50
2018-07-04T16:08:03.582Z,32.10
2018-07-04T16:10:43.308Z,32.50
2018-07-04T16:13:22.932Z,32.80
2018-07-04T16:16:02.492Z,33.00
2018-07-04T16:18:42.146Z,33.00
2018-07-04T16:21:21.793Z,33.30
2018-07-04T16:24:01.400Z,33.20
2018-07-04T16:29:14.688Z,33.30
2018-07-04T16:31:54.537Z,33.40
2018-07-04T16:34:34.114Z,32.90
2018-07-04T16:37:13.777Z,33.20
2018-07-04T16:39:53.569Z,32.80
2018-07-04T16:42:33.209Z,32.70
2018-07-04T16:45:12.756Z,33.20
2018-07-04T16:47:52.444Z,33.00
2018-07-04T16:50:31.894Z,33.10
2018-07-04T16:53:11.661Z,33.50
2018-07-04T16:55:51.166Z,33.40
2018-07-04T16:58:31.197Z,34.50
2018-07-04T17:01:10.768Z,34.50
2018-07-04T17:03:50.622Z,34.80
2018-07-04T17:06:30.285Z,35.50
2018-07-04T17:11:43.803Z,35.00
2018-07-04T17:14:23.360Z,35.00
2018-07-04T17:17:02.921Z,34.90
2018-07-04T17:19:42.427Z,35.00
2018-07-04T17:22:21.992Z,35.10
2018-07-04T17:25:01.464Z,35.10
2018-07-04T17:27:41.108Z,35.10
2018-07-04T17:30:20.570Z,35.20
2018-07-04T17:33:00.489Z,35.20
2018-07-04T17:35:40.219Z,35.20
2018-07-04T17:38:19.888Z,35.30
2018-07-04T17:40:59.456Z,35.40
2018-07-04T17:43:39.149Z,35.40
2018-07-04T17:46:18.917Z,35.50
2018-07-04T17:48:58.565Z,35.50
2018-07-04T17:51:38.052Z,35.60
2018-07-04T17:54:17.653Z,35.60
2018-07-04T17:56:57.344Z,35.60
2018-07-04T17:59:36.951Z,35.70
2018-07-04T18:02:16.638Z,35.80
2018-07-04T18:04:56.456Z,36.50
2018-07-04T18:07:36.118Z,36.00
2018-07-04T18:10:15.596Z,36.00
2018-07-04T18:12:55.328Z,36.10
2018-07-04T18:15:34.864Z,36.20
2018-07-04T18:18:14.632Z,36.20
2018-07-04T18:20:54.441Z,36.30
2018-07-04T18:23:33.996Z,36.30
2018-07-04T18:26:13.459Z,36.40
2018-07-04T18:28:53.120Z,36.40
2018-07-04T18:31:32.806Z,36.40
2018-07-04T18:34:12.550Z,36.40
2018-07-04T18:36:52.246Z,36.50
2018-07-04T18:39:31.821Z,36.60
2018-07-04T18:42:11.501Z,36.70
2018-07-04T18:44:51.148Z,36.60
2018-07-04T18:47:30.784Z,36.70
2018-07-04T18:50:10.352Z,36.80
2018-07-04T18:52:50.056Z,36.80
2018-07-04T18:55:29.672Z,36.80
2018-07-04T18:58:09.233Z,37.40
2018-07-04T19:00:49.017Z,36.90
2018-07-04T19:03:28.582Z,37.00
2018-07-04T19:06:08.313Z,37.00
2018-07-04T19:08:47.952Z,37.10
2018-07-04T19:11:27.556Z,37.10
2018-07-04T19:14:07.168Z,37.10
2018-07-04T19:16:46.820Z,37.20
2018-07-04T19:19:26.420Z,37.20
2018-07-04T19:22:06.020Z,37.20
2018-07-04T19:24:45.580Z,37.20
2018-07-04T19:27:25.242Z,37.20
2018-07-04T19:30:04.934Z,37.20
2018-07-04T19:32:44.457Z,37.20
2018-07-04T19:35:24.198Z,37.30
2018-07-04T19:38:03.850Z,37.30
2018-07-04T19:40:43.536Z,37.30
2018-07-04T19:43:23.197Z,37.30
2018-07-04T19:46:02.784Z,37.20
2018-07-04T19:48:42.317Z,37.20
2018-07-04T19:51:21.863Z,37.20
2018-07-04T19:54:01.486Z,37.30
2018-07-04T19:56:41.177Z,37.30
2018-07-04T19:59:20.586Z,37.30
2018-07-04T20:02:00.372Z,37.30
2018-07-04T20:04:39.940Z,37.30
2018-07-04T20:07:19.767Z,37.40
2018-07-04T20:09:59.449Z,37.40
2018-07-04T20:12:39.008Z,37.40
2018-07-04T20:15:18.564Z,37.30
2018-07-04T20:17:58.141Z,37.30
2018-07-04T20:20:37.764Z,37.40
2018-07-04T20:23:17.364Z,37.30
2018-07-04T20:25:56.904Z,37.30
2018-07-04T20:28:36.652Z,37.30
2018-07-04T20:31:16.181Z,37.20
2018-07-04T20:33:55.607Z,37.20
2018-07-04T20:36:35.508Z,37.20
2018-07-04T20:39:15.128Z,37.20
2018-07-04T20:41:54.959Z,37.30
2018-07-04T20:44:35.034Z,37.30
2018-07-04T20:47:14.756Z,37.30
2018-07-04T20:49:54.248Z,37.30
2018-07-04T20:52:33.852Z,37.40
2018-07-04T20:55:13.409Z,37.40
2018-07-04T20:57:53.544Z,37.50
2018-07-04T21:00:33.278Z,37.50
2018-07-04T21:03:12.796Z,37.50
2018-07-04T21:05:52.379Z,37.60
2018-07-04T21:08:31.924Z,37.60
2018-07-04T21:11:14.949Z,37.60
2018-07-04T21:13:54.577Z,37.80
2018-07-04T21:16:34.236Z,37.80
2018-07-04T21:19:13.992Z,37.80
2018-07-04T21:21:53.461Z,37.90
2018-07-04T21:24:33.438Z,38.00
2018-07-04T21:27:13.215Z,38.00
2018-07-04T21:29:53.068Z,38.00
2018-07-04T21:32:32.807Z,38.00
2018-07-04T21:35:12.355Z,38.10
2018-07-04T21:37:52.049Z,38.10
2018-07-04T21:40:31.564Z,38.10
2018-07-04T21:43:11.101Z,38.70
2018-07-04T21:45:50.768Z,38.20
2018-07-04T21:48:30.429Z,38.30
2018-07-04T21:51:10.068Z,38.30
2018-07-04T21:53:49.785Z,38.40
2018-07-04T21:56:29.515Z,38.40
2018-07-04T21:59:08.988Z,38.40
2018-07-04T22:01:48.719Z,38.40
2018-07-04T22:04:28.444Z,38.40
2018-07-04T22:07:08.112Z,38.40
2018-07-04T22:09:47.608Z,38.50
2018-07-04T22:12:27.344Z,38.50
2018-07-04T22:15:07.031Z,38.60
2018-07-04T22:17:46.683Z,38.60
2018-07-04T22:20:26.216Z,38.70
2018-07-04T22:23:05.965Z,38.80
2018-07-04T22:25:45.711Z,38.80
2018-07-04T22:28:25.171Z,38.80
2018-07-04T22:31:04.940Z,38.80
2018-07-04T22:33:44.400Z,39.10
2018-07-04T22:36:24.119Z,39.00
2018-07-04T22:39:04.487Z,39.00
2018-07-04T22:41:44.410Z,39.00
2018-07-04T22:44:24.027Z,39.10
2018-07-04T22:47:03.617Z,39.20
2018-07-04T22:49:43.148Z,39.20
2018-07-04T22:52:22.611Z,39.20
2018-07-04T22:55:02.179Z,39.20
2018-07-04T22:57:41.712Z,39.10
2018-07-04T23:00:21.360Z,39.20
2018-07-04T23:03:00.976Z,39.30
2018-07-04T23:05:40.521Z,39.30
2018-07-04T23:08:20.287Z,39.30
2018-07-04T23:10:59.832Z,39.30
2018-07-04T23:13:39.435Z,39.30
2018-07-04T23:16:19.000Z,39.40
2018-07-04T23:18:58.544Z,39.40
2018-07-04T23:21:38.068Z,39.40
2018-07-04T23:24:17.750Z,39.40
2018-07-04T23:26:57.365Z,39.50
2018-07-04T23:29:36.881Z,39.50
2018-07-04T23:32:16.367Z,39.50
2018-07-04T23:34:55.893Z,39.50
2018-07-04T23:37:35.409Z,39.40
2018-07-04T23:40:14.970Z,39.40
2018-07-04T23:42:54.351Z,39.50
2018-07-04T23:45:33.876Z,39.50
2018-07-04T23:48:13.548Z,39.60
2018-07-04T23:50:53.213Z,39.60
2018-07-04T23:53:32.845Z,39.60
2018-07-04T23:56:12.472Z,39.50
2018-07-04T23:58:51.961Z,39.60
